createdAt,value
2023-01-07T00:01:03.954Z,12.40
2023-01-07T00:06:22.773Z,14.00
2023-01-07T00:11:35.555Z,13.07
2023-01-07T00:16:40.045Z,14.53
2023-01-07T00:21:44.105Z,12.60
2023-01-07T00:26:47.795Z,13.97
2023-01-07T00:31:51.588Z,12.00
2023-01-07T00:37:14.945Z,12.83
2023-01-07T00:42:37.196Z,11.40
2023-01-07T00:47:41.027Z,12.50
2023-01-07T00:52:44.500Z,11.47
2023-01-07T00:57:48.294Z,13.17
2023-01-07T01:02:53.207Z,13.90
2023-01-07T01:07:58.672Z,15.93
2023-01-07T01:13:02.803Z,13.73
2023-01-07T01:18:06.515Z,12.17
2023-01-07T01:23:10.636Z,12.53
2023-01-07T01:28:14.395Z,11.80
2023-01-07T01:33:18.242Z,11.63
2023-01-07T01:38:22.055Z,12.10
2023-01-07T01:43:45.381Z,12.77
2023-01-07T01:48:55.297Z,9.73
2023-01-07T01:53:58.789Z,10.73
2023-01-07T01:59:13.381Z,10.00
2023-01-07T02:04:21.808Z,8.73
2023-01-07T02:09:25.403Z,7.70
2023-01-07T02:14:52.193Z,9.00
2023-01-07T02:20:14.626Z,8.63
2023-01-07T02:25:21.173Z,8.70
2023-01-07T02:30:56.123Z,9.03
2023-01-07T02:36:13.234Z,7.47
2023-01-07T02:41:38.734Z,8.53
2023-01-07T02:46:52.796Z,10.43
2023-01-07T02:51:56.410Z,11.03
2023-01-07T02:57:00.298Z,12.27
2023-01-07T03:02:06.997Z,14.20
2023-01-07T03:07:29.393Z,11.83
2023-01-07T03:12:35.665Z,12.87
2023-01-07T03:17:45.119Z,13.10
2023-01-07T03:22:49.684Z,12.23
2023-01-07T03:27:55.227Z,11.20
2023-01-07T03:33:08.518Z,11.43
2023-01-07T03:38:14.030Z,11.50
2023-01-07T03:43:20.913Z,12.10
2023-01-07T03:48:24.744Z,11.60
2023-01-07T03:53:28.494Z,10.67
2023-01-07T03:58:32.126Z,10.73
2023-01-07T04:03:35.842Z,10.73
2023-01-07T04:08:39.645Z,10.63
2023-01-07T04:13:43.434Z,11.03
2023-01-07T04:18:47.214Z,9.07
2023-01-07T04:23:51.090Z,9.87
2023-01-07T04:28:54.934Z,9.60
2023-01-07T04:33:58.799Z,9.27
2023-01-07T04:39:03.033Z,8.73
2023-01-07T04:44:06.935Z,9.83
2023-01-07T04:49:10.794Z,10.27
2023-01-07T04:54:14.516Z,10.97
2023-01-07T04:59:18.346Z,12.97
2023-01-07T05:09:58.251Z,11.30
2023-01-07T05:15:06.004Z,12.03
2023-01-07T05:20:10.164Z,13.07
2023-01-07T05:25:13.932Z,14.83
2023-01-07T05:30:17.974Z,16.03
2023-01-07T05:35:21.895Z,14.77
2023-01-07T05:40:25.705Z,15.93
2023-01-07T05:45:29.442Z,14.93
2023-01-07T05:50:33.539Z,14.80
2023-01-07T05:55:39.095Z,14.53
2023-01-07T06:00:43.331Z,16.53
2023-01-07T06:05:47.071Z,15.87
2023-01-07T06:10:50.710Z,14.83
2023-01-07T06:15:54.364Z,14.07
2023-01-07T06:20:58.626Z,14.50
2023-01-07T06:26:02.573Z,13.10
2023-01-07T06:31:06.509Z,12.73
2023-01-07T06:36:10.626Z,11.67
2023-01-07T06:41:14.779Z,12.87
2023-01-07T06:46:18.585Z,13.93
2023-01-07T06:51:22.351Z,15.20
2023-01-07T06:56:26.248Z,17.40
2023-01-07T07:01:30.195Z,14.60
2023-01-07T07:06:34.240Z,13.93
2023-01-07T07:11:38.370Z,14.70
2023-01-07T07:16:42.235Z,14.37
2023-01-07T07:21:47.286Z,13.70
2023-01-07T07:26:51.610Z,12.13
2023-01-07T07:31:55.006Z,11.97
2023-01-07T07:36:59.047Z,10.90
2023-01-07T07:42:07.078Z,11.47
2023-01-07T07:47:13.700Z,11.03
2023-01-07T07:52:18.191Z,10.63
2023-01-07T07:57:22.012Z,11.67
2023-01-07T08:02:25.491Z,11.53
2023-01-07T08:07:32.928Z,10.70
2023-01-07T08:12:39.456Z,11.17
2023-01-07T08:17:44.111Z,10.77
2023-01-07T08:22:48.096Z,12.00
2023-01-07T08:27:51.850Z,10.67
2023-01-07T08:32:56.431Z,11.47
2023-01-07T08:38:09.115Z,11.90
2023-01-07T08:43:15.696Z,10.63
2023-01-07T08:48:20.159Z,11.27
2023-01-07T08:53:24.780Z,10.63
2023-01-07T08:58:28.489Z,11.73
2023-01-07T09:03:32.369Z,12.03
2023-01-07T09:08:36.605Z,11.40
2023-01-07T09:13:40.540Z,11.37
2023-01-07T09:18:44.320Z,13.00
2023-01-07T09:23:47.952Z,10.60
2023-01-07T09:28:51.875Z,11.53
2023-01-07T09:33:55.345Z,12.10
2023-01-07T09:38:59.169Z,12.50
2023-01-07T09:44:40.416Z,11.60
2023-01-07T09:49:48.490Z,12.77
2023-01-07T09:54:59.731Z,11.90
2023-01-07T10:00:04.240Z,12.87
2023-01-07T10:05:41.230Z,13.87
2023-01-07T10:11:05.495Z,12.43
2023-01-07T10:16:24.419Z,12.43
2023-01-07T10:21:42.293Z,12.90
2023-01-07T10:26:50.629Z,12.97
2023-01-07T10:31:57.458Z,11.63
2023-01-07T10:37:08.298Z,12.30
2023-01-07T10:42:14.932Z,12.23
2023-01-07T10:47:31.816Z,14.03
2023-01-07T10:53:15.072Z,13.60
2023-01-07T10:58:18.974Z,12.70
2023-01-07T11:03:25.196Z,15.90
2023-01-07T11:08:37.591Z,16.13
2023-01-07T11:13:48.195Z,14.43
2023-01-07T11:19:06.993Z,14.97
2023-01-07T11:24:35.592Z,14.37
2023-01-07T11:30:17.340Z,15.30
2023-01-07T11:35:24.227Z,17.10
2023-01-07T11:40:31.955Z,17.27
2023-01-07T11:46:19.438Z,20.03
2023-01-07T11:51:24.744Z,21.33
2023-01-07T11:56:31.750Z,24.40
2023-01-07T12:01:47.190Z,25.73
2023-01-07T12:06:57.209Z,24.17
2023-01-07T12:12:40.581Z,27.07
2023-01-07T12:17:50.502Z,21.97
2023-01-07T12:23:22.322Z,18.37
2023-01-07T12:28:53.932Z,17.47
2023-01-07T12:34:03.632Z,15.83
2023-01-07T12:39:28.194Z,14.13
2023-01-07T12:44:33.176Z,14.43
2023-01-07T12:49:48.489Z,15.23
2023-01-07T12:54:58.558Z,15.40
2023-01-07T13:00:29.829Z,16.53
2023-01-07T13:06:12.919Z,16.07
2023-01-07T13:11:43.671Z,16.73
2023-01-07T13:16:49.131Z,18.70
2023-01-07T13:21:54.389Z,20.20
2023-01-07T13:26:59.013Z,21.03
2023-01-07T13:32:35.619Z,22.30
2023-01-07T13:37:51.594Z,18.17
2023-01-07T13:43:26.559Z,20.10
2023-01-07T13:48:31.705Z,18.13
2023-01-07T13:53:46.792Z,20.07
2023-01-07T13:58:59.066Z,21.97
2023-01-07T14:04:07.777Z,22.37
2023-01-07T14:09:27.335Z,28.23
2023-01-07T14:14:52.731Z,23.37
2023-01-07T14:20:18.318Z,23.50
2023-01-07T14:25:42.321Z,21.97
2023-01-07T14:30:53.526Z,26.00
2023-01-07T14:36:11.093Z,31.33
2023-01-07T14:41:17.616Z,28.07
2023-01-07T14:46:25.477Z,29.63
2023-01-07T14:51:36.340Z,28.87
2023-01-07T14:56:53.646Z,21.90
2023-01-07T15:02:45.803Z,23.23
2023-01-07T15:08:20.070Z,23.43
2023-01-07T15:13:43.257Z,23.20
2023-01-07T15:18:55.836Z,24.50
2023-01-07T15:24:24.932Z,23.23
2023-01-07T15:29:33.871Z,21.10
2023-01-07T15:34:43.931Z,24.13
2023-01-07T15:39:58.193Z,24.13
2023-01-07T15:45:03.323Z,26.43
2023-01-07T15:50:32.970Z,27.97
2023-01-07T15:55:44.650Z,29.07
2023-01-07T16:00:53.956Z,32.07
2023-01-07T16:05:59.842Z,53.37
2023-01-07T16:11:09.677Z,34.60
2023-01-07T16:16:17.274Z,25.87
2023-01-07T16:21:21.080Z,28.57
2023-01-07T16:26:44.690Z,23.97
2023-01-07T16:31:48.841Z,25.93
2023-01-07T16:36:56.737Z,23.73
2023-01-07T16:42:19.577Z,23.57
2023-01-07T16:47:26.897Z,23.87
2023-01-07T16:52:34.707Z,25.20
2023-01-07T16:57:45.142Z,24.80
2023-01-07T17:03:00.563Z,22.27
2023-01-07T17:08:08.800Z,22.23
2023-01-07T17:13:15.628Z,23.23
2023-01-07T17:18:19.780Z,36.97
2023-01-07T17:23:27.747Z,27.50
2023-01-07T17:28:34.798Z,28.03
2023-01-07T17:33:38.757Z,23.63
2023-01-07T17:38:42.683Z,24.77
2023-01-07T17:43:46.570Z,26.47
2023-01-07T17:48:50.591Z,26.33
2023-01-07T17:53:57.996Z,26.40
2023-01-07T17:59:01.488Z,24.43
2023-01-07T18:04:05.541Z,28.80
2023-01-07T18:09:11.496Z,32.13
2023-01-07T18:14:16.456Z,30.63
2023-01-07T18:19:21.753Z,27.87
2023-01-07T18:24:37.458Z,31.10
2023-01-07T18:29:41.626Z,33.93
2023-01-07T18:34:45.754Z,32.93
2023-01-07T18:39:49.897Z,28.27
2023-01-07T18:44:53.606Z,28.93
2023-01-07T18:49:57.679Z,29.67
2023-01-07T18:55:02.082Z,27.23
2023-01-07T19:00:07.895Z,30.63
2023-01-07T19:05:12.186Z,31.03
2023-01-07T19:10:16.134Z,31.00
2023-01-07T19:15:20.284Z,33.37
2023-01-07T19:20:24.655Z,34.87
2023-01-07T19:25:31.247Z,29.83
2023-01-07T19:30:35.276Z,29.90
2023-01-07T19:35:39.342Z,32.00
2023-01-07T19:40:47.064Z,29.60
2023-01-07T19:45:56.004Z,38.40
2023-01-07T19:51:05.962Z,35.30
2023-01-07T19:56:16.907Z,31.37
2023-01-07T20:01:25.288Z,33.30
2023-01-07T20:06:32.759Z,39.80
2023-01-07T20:11:39.428Z,35.53
2023-01-07T20:16:45.999Z,34.67
2023-01-07T20:21:51.632Z,38.13
2023-01-07T20:26:58.445Z,37.60
2023-01-07T20:32:02.609Z,38.43
2023-01-07T20:37:06.666Z,37.93
2023-01-07T20:42:11.998Z,37.80
2023-01-07T20:47:17.193Z,41.60
2023-01-07T20:52:22.743Z,41.57
2023-01-07T20:57:29.716Z,39.23
2023-01-07T21:02:33.941Z,38.43
2023-01-07T21:07:38.515Z,37.87
2023-01-07T21:12:44.272Z,36.23
2023-01-07T21:17:48.256Z,34.43
2023-01-07T21:22:54.362Z,36.60
2023-01-07T21:27:59.081Z,36.93
2023-01-07T21:33:03.298Z,35.20
2023-01-07T21:38:10.566Z,35.53
2023-01-07T21:43:14.752Z,34.90
2023-01-07T21:48:20.830Z,34.33
2023-01-07T21:53:26.064Z,37.87
2023-01-07T21:58:29.809Z,33.53
2023-01-07T22:03:36.417Z,36.20
2023-01-07T22:08:40.561Z,34.47
2023-01-07T22:13:45.662Z,34.83
2023-01-07T22:18:51.317Z,32.30
2023-01-07T22:23:55.038Z,34.73
2023-01-07T22:29:03.615Z,32.67
2023-01-07T22:34:09.950Z,32.63
2023-01-07T22:39:26.976Z,31.87
2023-01-07T22:44:38.340Z,31.77
2023-01-07T22:49:44.195Z,31.90
2023-01-07T22:54:49.103Z,31.47
2023-01-07T22:59:55.159Z,31.63
2023-01-07T23:04:59.986Z,30.90
2023-01-07T23:10:04.088Z,31.97
2023-01-07T23:15:08.273Z,32.13
2023-01-07T23:20:12.643Z,24.83
2023-01-07T23:25:16.507Z,30.23
2023-01-07T23:30:21.534Z,29.10
2023-01-07T23:35:26.231Z,28.67
2023-01-07T23:40:30.451Z,29.93
2023-01-07T23:45:34.580Z,28.90
2023-01-07T23:50:38.565Z,27.97
2023-01-07T23:55:50.456Z,29.37
